createdAt,value
2022-09-21T00:00:25.639Z,10.70
2022-09-21T00:01:05.914Z,10.60
2022-09-21T00:01:37.891Z,10.60
2022-09-21T00:02:10.682Z,10.60
2022-09-21T00:02:42.555Z,10.60
2022-09-21T00:03:15.435Z,10.60
2022-09-21T00:03:48.962Z,10.60
2022-09-21T00:04:20.753Z,10.60
2022-09-21T00:04:52.510Z,10.60
2022-09-21T00:05:25.400Z,10.50
2022-09-21T00:06:02.805Z,10.50
2022-09-21T00:06:35.232Z,10.50
2022-09-21T00:07:07.952Z,10.50
2022-09-21T00:07:39.722Z,10.50
2022-09-21T00:08:13.667Z,10.60
2022-09-21T00:08:48.955Z,10.60
2022-09-21T00:09:20.738Z,10.60
2022-09-21T00:09:52.524Z,10.60
2022-09-21T00:10:25.239Z,10.60
2022-09-21T00:10:57.062Z,10.60
2022-09-21T00:11:30.768Z,10.60
2022-09-21T00:12:03.533Z,10.60
2022-09-21T00:12:38.461Z,10.60
2022-09-21T00:13:12.366Z,10.70
2022-09-21T00:13:46.582Z,10.70
2022-09-21T00:14:19.681Z,10.70
2022-09-21T00:14:52.419Z,10.70
2022-09-21T00:15:24.761Z,10.70
2022-09-21T00:15:56.710Z,10.70
2022-09-21T00:16:30.176Z,10.70
2022-09-21T00:17:01.969Z,10.70
2022-09-21T00:17:34.072Z,10.70
2022-09-21T00:18:06.853Z,10.70
2022-09-21T00:18:38.883Z,10.70
2022-09-21T00:19:12.652Z,10.70
2022-09-21T00:19:44.417Z,10.70
2022-09-21T00:20:16.393Z,10.70
2022-09-21T00:20:49.231Z,10.70
2022-09-21T00:21:21.733Z,10.70
2022-09-21T00:21:54.913Z,10.70
2022-09-21T00:22:27.728Z,10.70
2022-09-21T00:22:59.489Z,10.70
2022-09-21T00:23:31.274Z,10.70
2022-09-21T00:24:05.749Z,10.70
2022-09-21T00:24:37.540Z,10.70
2022-09-21T00:25:09.704Z,10.70
2022-09-21T00:25:41.492Z,10.70
2022-09-21T00:26:16.784Z,10.70
2022-09-21T00:26:48.585Z,10.70
2022-09-21T00:27:21.293Z,10.70
2022-09-21T00:27:54.419Z,10.70
2022-09-21T00:28:26.253Z,10.70
2022-09-21T00:29:02.302Z,10.70
2022-09-21T00:29:34.168Z,10.70
2022-09-21T00:30:07.874Z,10.70
2022-09-21T00:30:40.619Z,10.70
2022-09-21T00:31:14.517Z,10.80
2022-09-21T00:31:47.266Z,10.80
2022-09-21T00:32:20.108Z,10.80
2022-09-21T00:32:53.690Z,10.80
2022-09-21T00:33:25.793Z,10.70
2022-09-21T00:33:59.974Z,10.70
2022-09-21T00:34:32.120Z,10.70
2022-09-21T00:35:05.972Z,10.70
2022-09-21T00:35:38.369Z,10.70
2022-09-21T00:36:13.269Z,10.60
2022-09-21T00:36:45.036Z,10.60
2022-09-21T00:37:16.868Z,10.60
2022-09-21T00:37:49.646Z,10.60
2022-09-21T00:38:21.477Z,10.60
2022-09-21T00:38:56.271Z,10.60
2022-09-21T00:39:30.375Z,10.60
2022-09-21T00:40:02.841Z,10.60
2022-09-21T00:40:34.674Z,10.60
2022-09-21T00:41:09.786Z,10.60
2022-09-21T00:41:41.601Z,10.70
2022-09-21T00:42:16.959Z,10.70
2022-09-21T00:42:50.667Z,10.70
2022-09-21T00:43:22.446Z,10.70
2022-09-21T00:44:24.828Z,10.70
2022-09-21T00:44:57.557Z,10.70
2022-09-21T00:45:31.081Z,10.70
2022-09-21T00:46:05.858Z,10.70
2022-09-21T00:46:41.138Z,10.70
2022-09-21T00:47:16.098Z,10.70
2022-09-21T00:47:50.477Z,10.70
2022-09-21T00:48:23.460Z,10.70
2022-09-21T00:48:55.701Z,10.70
2022-09-21T00:49:28.256Z,10.70
2022-09-21T00:50:03.493Z,10.70
2022-09-21T00:50:37.713Z,10.70
2022-09-21T00:51:09.931Z,10.70
2022-09-21T00:51:43.264Z,10.70
2022-09-21T00:52:17.739Z,10.80
2022-09-21T00:52:52.116Z,10.70
2022-09-21T00:53:25.218Z,10.70
2022-09-21T00:54:01.665Z,10.70
2022-09-21T00:54:40.654Z,10.60
2022-09-21T00:55:18.045Z,10.60
2022-09-21T00:55:55.359Z,10.60
2022-09-21T00:56:28.704Z,10.50
2022-09-21T00:57:02.888Z,10.50
2022-09-21T00:57:35.788Z,10.50
2022-09-21T00:58:13.111Z,10.50
2022-09-21T00:58:47.759Z,10.50
2022-09-21T00:59:21.793Z,10.50
2022-09-21T00:59:57.717Z,10.50
2022-09-21T01:00:29.709Z,10.50
2022-09-21T01:01:01.633Z,10.50
2022-09-21T01:01:34.628Z,10.50
2022-09-21T01:02:06.550Z,10.50
2022-09-21T01:02:39.025Z,10.50
2022-09-21T01:03:12.433Z,10.50
2022-09-21T01:03:46.761Z,10.50
2022-09-21T01:04:19.327Z,10.50
2022-09-21T01:04:53.857Z,10.50
2022-09-21T01:05:26.615Z,10.50
2022-09-21T01:05:58.440Z,10.50
2022-09-21T01:06:32.582Z,10.50
2022-09-21T01:07:12.093Z,10.50
2022-09-21T01:07:47.425Z,10.50
2022-09-21T01:08:20.896Z,10.50
2022-09-21T01:08:56.148Z,10.50
2022-09-21T01:09:28.609Z,10.50
2022-09-21T01:10:09.239Z,10.50
2022-09-21T01:11:03.357Z,10.50
2022-09-21T01:11:41.955Z,10.50
2022-09-21T01:12:31.065Z,10.40
2022-09-21T01:13:15.157Z,10.40
2022-09-21T01:13:57.652Z,10.40
2022-09-21T01:14:48.343Z,10.40
2022-09-21T01:15:30.004Z,10.40
2022-09-21T01:16:09.073Z,10.40
2022-09-21T01:16:49.885Z,10.30
2022-09-21T01:17:31.031Z,10.30
2022-09-21T01:18:13.731Z,10.30
2022-09-21T01:18:52.338Z,10.30
2022-09-21T01:19:46.938Z,10.30
2022-09-21T01:20:55.161Z,10.30
2022-09-21T01:21:30.969Z,10.30
2022-09-21T01:22:13.960Z,10.20
2022-09-21T01:22:59.712Z,10.20
2022-09-21T01:24:04.151Z,10.20
2022-09-21T01:24:51.145Z,10.20
2022-09-21T01:25:32.117Z,10.20
2022-09-21T01:26:15.908Z,10.20
2022-09-21T01:27:23.089Z,10.10
2022-09-21T01:28:08.666Z,10.10
2022-09-21T01:29:10.000Z,10.10
2022-09-21T01:29:47.095Z,10.10
2022-09-21T01:30:20.219Z,10.10
2022-09-21T01:30:55.061Z,10.10
2022-09-21T01:31:31.980Z,10.10
2022-09-21T01:32:09.165Z,10.10
2022-09-21T01:32:46.140Z,10.10
2022-09-21T01:33:25.836Z,10.10
2022-09-21T01:34:01.647Z,10.10
2022-09-21T01:34:38.573Z,10.10
2022-09-21T01:35:15.825Z,10.10
2022-09-21T01:35:50.947Z,10.10
2022-09-21T01:36:27.481Z,10.10
2022-09-21T01:37:03.226Z,10.10
2022-09-21T01:37:39.988Z,10.10
2022-09-21T01:38:17.496Z,10.10
2022-09-21T01:38:52.985Z,10.10
2022-09-21T01:39:27.368Z,10.10
2022-09-21T01:40:05.089Z,10.10
2022-09-21T01:40:41.321Z,10.20
2022-09-21T01:41:18.129Z,10.20
2022-09-21T01:41:51.904Z,10.20
2022-09-21T01:42:26.688Z,10.20
2022-09-21T01:43:02.268Z,10.20
2022-09-21T01:43:38.586Z,10.20
2022-09-21T01:44:15.836Z,10.20
2022-09-21T01:44:48.814Z,10.20
2022-09-21T01:45:27.461Z,10.20
2022-09-21T01:46:02.023Z,10.20
2022-09-21T01:46:35.020Z,10.20
2022-09-21T01:47:12.413Z,10.10
2022-09-21T01:47:47.832Z,10.10
2022-09-21T01:48:22.255Z,10.10
2022-09-21T01:49:00.788Z,10.10
2022-09-21T01:49:37.317Z,10.10
2022-09-21T01:50:11.771Z,10.10
2022-09-21T01:50:48.684Z,10.10
2022-09-21T01:51:22.536Z,10.00
2022-09-21T01:51:59.341Z,10.00
2022-09-21T01:52:37.164Z,10.00
2022-09-21T01:53:13.778Z,10.00
2022-09-21T01:53:51.223Z,9.90
2022-09-21T01:54:29.593Z,9.90
2022-09-21T01:55:06.212Z,9.90
2022-09-21T01:55:44.293Z,9.90
2022-09-21T01:56:21.565Z,9.90
2022-09-21T01:56:58.327Z,9.90
2022-09-21T01:57:38.764Z,9.90
2022-09-21T01:58:15.041Z,9.90
2022-09-21T01:58:55.809Z,9.90
2022-09-21T01:59:37.737Z,9.90
2022-09-21T02:00:10.563Z,10.00
2022-09-21T02:00:47.976Z,9.90
2022-09-21T02:01:23.024Z,9.90
2022-09-21T02:01:59.637Z,10.00
2022-09-21T02:02:39.224Z,10.00
2022-09-21T02:03:16.022Z,9.90
2022-09-21T02:03:52.945Z,9.90
2022-09-21T02:04:25.337Z,9.90
2022-09-21T02:04:57.813Z,9.90
2022-09-21T02:05:31.371Z,10.00
2022-09-21T02:06:05.708Z,10.00
2022-09-21T02:06:39.924Z,10.00
2022-09-21T02:07:11.883Z,10.00
2022-09-21T02:07:45.280Z,10.00
2022-09-21T02:08:17.551Z,10.00
2022-09-21T02:08:49.381Z,10.00
2022-09-21T02:09:22.329Z,10.10
2022-09-21T02:09:56.011Z,10.00
2022-09-21T02:10:33.284Z,10.00
2022-09-21T02:11:06.733Z,10.00
2022-09-21T02:11:42.412Z,10.00
2022-09-21T02:12:18.757Z,10.00
2022-09-21T02:12:56.746Z,9.90
2022-09-21T02:13:33.176Z,9.90
2022-09-21T02:14:07.444Z,9.90
2022-09-21T02:14:41.785Z,9.90
2022-09-21T02:15:13.935Z,9.90
2022-09-21T02:16:01.933Z,9.80
2022-09-21T02:16:38.728Z,9.90
2022-09-21T02:17:31.171Z,9.80
2022-09-21T02:18:10.466Z,9.80
2022-09-21T02:18:50.647Z,9.80
2022-09-21T02:19:38.084Z,9.80
2022-09-21T02:20:19.322Z,9.80
2022-09-21T02:20:57.009Z,9.70
2022-09-21T02:21:39.826Z,9.80
2022-09-21T02:22:15.739Z,9.70
2022-09-21T02:22:59.397Z,9.70
2022-09-21T02:23:43.587Z,9.70
2022-09-21T02:24:24.997Z,9.70
2022-09-21T02:25:05.303Z,9.70
2022-09-21T02:25:45.270Z,9.70
2022-09-21T02:26:22.553Z,9.70
2022-09-21T02:27:00.845Z,9.70
2022-09-21T02:27:39.271Z,9.70
2022-09-21T02:28:23.677Z,9.70
2022-09-21T02:29:02.685Z,9.70
2022-09-21T02:29:50.129Z,9.70
2022-09-21T02:30:24.870Z,9.70
2022-09-21T02:31:05.375Z,9.60
2022-09-21T02:31:47.793Z,9.70
2022-09-21T02:32:28.157Z,9.70
2022-09-21T02:33:06.833Z,9.70
2022-09-21T02:33:47.149Z,9.70
2022-09-21T02:34:27.150Z,9.60
2022-09-21T02:35:03.685Z,9.70
2022-09-21T02:35:42.588Z,9.60
2022-09-21T02:36:22.302Z,9.80
2022-09-21T02:37:00.357Z,9.70
2022-09-21T02:37:37.173Z,9.70
2022-09-21T02:38:15.580Z,9.70
2022-09-21T02:38:53.319Z,9.70
2022-09-21T02:39:32.885Z,9.70
2022-09-21T02:40:13.118Z,9.70
2022-09-21T02:40:53.840Z,9.70
2022-09-21T02:41:31.287Z,9.70
2022-09-21T02:42:10.429Z,9.70
2022-09-21T02:42:46.312Z,9.70
2022-09-21T02:43:23.082Z,9.60
2022-09-21T02:44:04.489Z,9.70
2022-09-21T02:44:42.567Z,9.70
2022-09-21T02:45:19.174Z,9.60
2022-09-21T02:45:57.672Z,9.60
2022-09-21T02:46:34.442Z,9.60
2022-09-21T02:47:10.470Z,9.60
2022-09-21T02:47:48.332Z,9.60
2022-09-21T02:48:26.396Z,9.60
2022-09-21T02:49:02.753Z,9.60
2022-09-21T02:49:40.009Z,9.60
2022-09-21T02:50:18.097Z,9.60
2022-09-21T02:50:55.564Z,9.70
2022-09-21T02:51:31.714Z,9.60
2022-09-21T02:52:07.689Z,9.60
2022-09-21T02:52:43.746Z,9.60
2022-09-21T02:53:20.070Z,9.70
2022-09-21T02:53:54.292Z,9.70
2022-09-21T02:54:30.820Z,9.70
2022-09-21T02:55:04.940Z,9.70
2022-09-21T02:55:37.626Z,9.70
2022-09-21T02:56:11.737Z,9.70
2022-09-21T02:56:46.181Z,9.70
2022-09-21T02:57:21.732Z,9.70
2022-09-21T02:57:56.638Z,9.70
2022-09-21T02:58:29.469Z,9.60
2022-09-21T02:59:04.452Z,9.60
2022-09-21T02:59:37.328Z,9.60
2022-09-21T03:00:12.125Z,9.60
2022-09-21T03:00:43.983Z,9.60
2022-09-21T03:01:18.310Z,9.60
2022-09-21T03:01:51.337Z,9.60
2022-09-21T03:02:23.142Z,9.60
2022-09-21T03:02:55.881Z,9.60
2022-09-21T03:03:27.827Z,9.60
2022-09-21T03:03:59.909Z,9.60
2022-09-21T03:04:32.920Z,9.60
2022-09-21T03:05:05.642Z,9.60
2022-09-21T03:05:37.429Z,9.60
2022-09-21T03:06:10.200Z,9.60
2022-09-21T03:06:41.997Z,9.60
2022-09-21T03:07:14.743Z,9.60
2022-09-21T03:07:47.969Z,9.60
2022-09-21T03:08:19.980Z,9.60
2022-09-21T03:08:51.837Z,9.60
2022-09-21T03:09:24.601Z,9.60
2022-09-21T03:09:56.380Z,9.60
2022-09-21T03:10:28.135Z,9.60
2022-09-21T03:11:00.915Z,9.60
2022-09-21T03:11:33.772Z,9.60
2022-09-21T03:12:06.942Z,9.60
2022-09-21T03:12:38.805Z,9.60
2022-09-21T03:13:10.985Z,9.60
2022-09-21T03:13:44.504Z,9.60
2022-09-21T03:14:18.261Z,9.50
2022-09-21T03:14:51.660Z,9.60
2022-09-21T03:15:26.002Z,9.60
2022-09-21T03:16:03.483Z,9.60
2022-09-21T03:16:35.348Z,9.60
2022-09-21T03:17:07.108Z,9.60
2022-09-21T03:17:38.911Z,9.60
2022-09-21T03:18:12.475Z,9.60
2022-09-21T03:18:44.429Z,9.50
2022-09-21T03:19:17.480Z,9.60
2022-09-21T03:19:49.274Z,9.60
2022-09-21T03:20:21.089Z,9.60
2022-09-21T03:20:53.796Z,9.60
2022-09-21T03:21:25.567Z,9.60
2022-09-21T03:21:58.577Z,9.60
2022-09-21T03:22:30.339Z,9.50
2022-09-21T03:23:02.660Z,9.50
2022-09-21T03:23:35.398Z,9.60
2022-09-21T03:24:07.400Z,9.50
2022-09-21T03:24:48.187Z,9.50
2022-09-21T03:25:21.021Z,9.50
2022-09-21T03:25:52.779Z,9.50
2022-09-21T03:26:24.628Z,9.50
2022-09-21T03:26:57.387Z,9.50
2022-09-21T03:27:29.480Z,9.50
2022-09-21T03:28:02.414Z,9.50
2022-09-21T03:28:35.182Z,9.50
2022-09-21T03:29:07.068Z,9.50
2022-09-21T03:29:38.961Z,9.50
2022-09-21T03:30:12.865Z,9.50
2022-09-21T03:30:46.134Z,9.50
2022-09-21T03:31:18.151Z,9.40
2022-09-21T03:31:53.565Z,9.40
2022-09-21T03:32:26.792Z,9.50
2022-09-21T03:32:58.834Z,9.50
2022-09-21T03:33:31.536Z,9.50
2022-09-21T03:34:03.309Z,9.50
2022-09-21T03:34:35.325Z,9.50
2022-09-21T03:35:08.750Z,9.50
2022-09-21T03:35:40.632Z,9.50
2022-09-21T03:36:13.371Z,9.50
2022-09-21T03:36:45.116Z,9.50
2022-09-21T03:37:17.012Z,9.50
2022-09-21T03:37:51.305Z,9.50
2022-09-21T03:38:23.680Z,9.50
2022-09-21T03:38:55.586Z,9.50
2022-09-21T03:39:28.344Z,9.50
2022-09-21T03:40:00.251Z,9.50
2022-09-21T03:40:32.797Z,9.50
2022-09-21T03:41:05.816Z,9.50
2022-09-21T03:41:38.182Z,9.50
2022-09-21T03:42:10.518Z,9.50
2022-09-21T03:42:44.174Z,9.50
2022-09-21T03:43:16.692Z,9.50
2022-09-21T03:43:48.461Z,9.50
2022-09-21T03:44:21.205Z,9.50
2022-09-21T03:44:52.968Z,9.60
2022-09-21T03:45:24.828Z,9.60
2022-09-21T03:45:58.954Z,9.50
2022-09-21T03:46:30.794Z,9.50
2022-09-21T03:47:02.591Z,9.50
2022-09-21T03:47:34.920Z,9.50
2022-09-21T03:48:07.855Z,9.50
2022-09-21T03:48:42.297Z,9.50
2022-09-21T03:49:14.149Z,9.50
2022-09-21T03:49:46.872Z,9.50
2022-09-21T03:50:18.705Z,9.50
2022-09-21T03:50:50.948Z,9.50
2022-09-21T03:51:23.775Z,9.40
2022-09-21T03:51:56.015Z,9.40
2022-09-21T03:52:27.977Z,9.40
2022-09-21T03:53:00.830Z,9.40
2022-09-21T03:53:32.612Z,9.40
2022-09-21T03:54:04.601Z,9.40
2022-09-21T03:54:37.510Z,9.50
2022-09-21T03:55:09.696Z,9.40
2022-09-21T03:55:41.659Z,9.40
2022-09-21T03:56:14.397Z,9.40
2022-09-21T03:56:47.274Z,9.40
2022-09-21T03:57:19.263Z,9.40
2022-09-21T03:57:52.074Z,9.50
2022-09-21T03:58:23.841Z,9.40
2022-09-21T03:58:55.760Z,9.40
2022-09-21T03:59:28.542Z,9.40
2022-09-21T04:00:00.349Z,9.40
2022-09-21T04:00:33.517Z,9.40
2022-09-21T04:01:06.699Z,9.40
2022-09-21T04:01:38.624Z,9.40
2022-09-21T04:02:11.438Z,9.40
2022-09-21T04:02:43.279Z,9.40
2022-09-21T04:03:15.041Z,9.40
2022-09-21T04:03:47.812Z,9.40
2022-09-21T04:04:20.265Z,9.40
2022-09-21T04:04:52.075Z,9.40
2022-09-21T04:05:25.227Z,9.40
2022-09-21T04:05:57.008Z,9.40
2022-09-21T04:06:29.131Z,9.30
2022-09-21T04:07:02.014Z,9.30
2022-09-21T04:07:35.008Z,9.30
2022-09-21T04:08:07.274Z,9.30
2022-09-21T04:08:39.320Z,9.30
2022-09-21T04:09:12.075Z,9.30
2022-09-21T04:09:43.888Z,9.30
2022-09-21T04:10:17.953Z,9.30
2022-09-21T04:10:50.694Z,9.30
2022-09-21T04:11:22.961Z,9.30
2022-09-21T04:11:54.785Z,9.30
2022-09-21T04:12:27.920Z,9.30
2022-09-21T04:13:01.184Z,9.30
2022-09-21T04:13:33.749Z,9.20
2022-09-21T04:14:06.512Z,9.30
2022-09-21T04:14:38.297Z,9.20
2022-09-21T04:15:11.136Z,9.20
2022-09-21T04:15:43.921Z,9.30
2022-09-21T04:16:17.834Z,9.30
2022-09-21T04:16:51.956Z,9.30
2022-09-21T04:17:23.765Z,9.30
2022-09-21T04:17:55.783Z,9.30
2022-09-21T04:18:28.603Z,9.30
2022-09-21T04:19:00.441Z,9.30
2022-09-21T04:19:32.282Z,9.30
2022-09-21T04:20:06.004Z,9.30
2022-09-21T04:20:38.144Z,9.30
2022-09-21T04:21:09.975Z,9.20
2022-09-21T04:21:42.709Z,9.20
2022-09-21T04:22:14.538Z,9.20
2022-09-21T04:22:47.052Z,9.20
2022-09-21T04:23:19.864Z,9.20
2022-09-21T04:23:51.754Z,9.20
2022-09-21T04:24:23.977Z,9.10
2022-09-21T04:24:56.700Z,9.20
2022-09-21T04:25:28.700Z,9.20
2022-09-21T04:26:01.509Z,9.20
2022-09-21T04:26:35.272Z,9.20
2022-09-21T04:27:07.186Z,9.20
2022-09-21T04:27:40.308Z,9.10
2022-09-21T04:28:12.080Z,9.20
2022-09-21T04:28:43.834Z,9.20
2022-09-21T04:29:16.239Z,9.20
2022-09-21T04:29:48.956Z,9.20
2022-09-21T04:30:20.720Z,9.20
2022-09-21T04:30:53.623Z,9.20
2022-09-21T04:31:29.707Z,9.20
2022-09-21T04:32:01.916Z,9.20
2022-09-21T04:32:33.707Z,9.10
2022-09-21T04:33:06.469Z,9.10
2022-09-21T04:33:38.246Z,9.10
2022-09-21T04:34:13.297Z,9.10
2022-09-21T04:34:46.062Z,9.10
2022-09-21T04:35:17.881Z,9.10
2022-09-21T04:35:55.568Z,9.10
2022-09-21T04:36:30.212Z,9.10
2022-09-21T04:37:05.109Z,9.20
2022-09-21T04:37:37.866Z,9.10
2022-09-21T04:38:09.621Z,9.10
2022-09-21T04:38:41.385Z,9.10
2022-09-21T04:39:14.127Z,9.10
2022-09-21T04:39:45.872Z,9.10
2022-09-21T04:40:17.787Z,9.10
2022-09-21T04:40:56.996Z,9.10
2022-09-21T04:41:28.779Z,9.10
2022-09-21T04:42:00.586Z,9.10
2022-09-21T04:42:34.197Z,9.10
2022-09-21T04:43:06.104Z,9.10
2022-09-21T04:43:37.931Z,9.10
2022-09-21T04:44:10.701Z,9.10
2022-09-21T04:44:42.627Z,9.10
2022-09-21T04:45:14.503Z,9.10
2022-09-21T04:45:47.856Z,9.10
2022-09-21T04:46:20.772Z,9.10
2022-09-21T04:46:54.071Z,9.10
2022-09-21T04:47:26.800Z,9.10
2022-09-21T04:47:58.579Z,9.10
2022-09-21T04:48:30.416Z,9.10
2022-09-21T04:49:03.145Z,9.10
2022-09-21T04:49:35.285Z,9.10
2022-09-21T04:50:08.137Z,9.00
2022-09-21T04:50:40.886Z,9.10
2022-09-21T04:51:14.509Z,9.10
2022-09-21T04:51:46.272Z,9.10
2022-09-21T04:52:19.294Z,9.10
2022-09-21T04:52:51.160Z,9.10
2022-09-21T04:53:23.004Z,9.10
2022-09-21T04:53:55.743Z,9.20
2022-09-21T04:54:27.507Z,9.20
2022-09-21T04:54:59.305Z,9.10
2022-09-21T04:55:32.063Z,9.10
2022-09-21T04:56:05.374Z,9.20
2022-09-21T04:56:38.221Z,9.20
2022-09-21T04:57:09.963Z,9.30
2022-09-21T04:57:41.740Z,9.20
2022-09-21T04:58:14.494Z,9.20
2022-09-21T04:58:46.324Z,9.20
2022-09-21T04:59:18.137Z,9.20
2022-09-21T04:59:50.856Z,9.20
2022-09-21T05:00:22.637Z,9.20
2022-09-21T05:00:55.193Z,9.20
2022-09-21T05:01:28.044Z,9.20
2022-09-21T05:02:01.221Z,9.20
2022-09-21T05:02:33.232Z,9.30
2022-09-21T05:03:06.003Z,9.30
2022-09-21T05:03:38.285Z,9.30
2022-09-21T05:04:10.066Z,9.30
2022-09-21T05:04:44.652Z,9.30
2022-09-21T05:05:19.969Z,9.30
2022-09-21T05:05:54.916Z,9.30
2022-09-21T05:06:27.712Z,9.30
2022-09-21T05:06:59.642Z,9.20
2022-09-21T05:07:32.466Z,9.20
2022-09-21T05:08:04.419Z,9.30
2022-09-21T05:08:55.050Z,9.30
2022-09-21T05:09:45.445Z,9.20
2022-09-21T05:10:17.350Z,9.20
2022-09-21T05:10:51.876Z,9.20
2022-09-21T05:11:24.988Z,9.20
2022-09-21T05:11:56.792Z,9.20
2022-09-21T05:12:29.097Z,9.20
2022-09-21T05:13:01.824Z,9.20
2022-09-21T05:13:33.663Z,9.20
2022-09-21T05:14:05.771Z,9.20
2022-09-21T05:14:38.493Z,9.20
2022-09-21T05:15:11.263Z,9.20
2022-09-21T05:15:43.106Z,9.20
2022-09-21T05:16:16.332Z,9.20
2022-09-21T05:16:49.603Z,9.20
2022-09-21T05:17:23.988Z,9.20
2022-09-21T05:17:55.759Z,9.20
2022-09-21T05:18:27.556Z,9.20
2022-09-21T05:19:00.329Z,9.20
2022-09-21T05:19:32.112Z,9.20
2022-09-21T05:20:05.617Z,9.20
2022-09-21T05:20:37.430Z,9.10
2022-09-21T05:21:11.192Z,9.20
2022-09-21T05:21:44.076Z,9.20
2022-09-21T05:22:16.069Z,9.10
2022-09-21T05:22:47.871Z,9.10
2022-09-21T05:23:20.622Z,9.20
2022-09-21T05:23:52.485Z,9.20
2022-09-21T05:24:24.513Z,9.20
2022-09-21T05:24:57.255Z,9.20
2022-09-21T05:25:29.408Z,9.20
2022-09-21T05:26:01.244Z,9.20
2022-09-21T05:26:33.991Z,9.20
2022-09-21T05:27:06.395Z,9.20
2022-09-21T05:27:38.189Z,9.20
2022-09-21T05:28:11.443Z,9.20
2022-09-21T05:28:43.835Z,9.20
2022-09-21T05:29:16.180Z,9.20
2022-09-21T05:29:49.501Z,9.20
2022-09-21T05:30:22.553Z,9.20
2022-09-21T05:31:16.570Z,9.20
2022-09-21T05:31:55.325Z,9.30
2022-09-21T05:32:41.380Z,9.20
2022-09-21T05:33:20.115Z,9.30
2022-09-21T05:33:56.072Z,9.30
2022-09-21T05:34:42.463Z,9.30
2022-09-21T05:35:24.350Z,9.30
2022-09-21T05:36:07.249Z,9.30
2022-09-21T05:36:50.515Z,9.30
2022-09-21T05:37:44.584Z,9.30
2022-09-21T05:38:18.978Z,9.40
2022-09-21T05:38:52.369Z,9.30
2022-09-21T05:39:24.576Z,9.30
2022-09-21T05:39:56.901Z,9.40
2022-09-21T05:40:30.223Z,9.40
2022-09-21T05:41:03.488Z,9.40
2022-09-21T05:41:36.027Z,9.40
2022-09-21T05:42:11.373Z,9.40
2022-09-21T05:42:43.854Z,9.40
2022-09-21T05:43:16.461Z,9.50
2022-09-21T05:43:49.812Z,9.50
2022-09-21T05:44:22.180Z,9.50
2022-09-21T05:44:55.243Z,9.50
2022-09-21T05:45:29.710Z,9.40
2022-09-21T05:46:05.668Z,9.40
2022-09-21T05:46:40.105Z,9.50
2022-09-21T05:47:25.044Z,9.50
2022-09-21T05:48:06.844Z,9.50
2022-09-21T05:48:42.890Z,9.50
2022-09-21T05:49:19.078Z,9.40
2022-09-21T05:50:03.449Z,9.40
2022-09-21T05:50:46.752Z,9.50
2022-09-21T05:51:30.589Z,9.40
2022-09-21T05:52:08.612Z,9.40
2022-09-21T05:52:48.986Z,9.40
2022-09-21T05:53:49.266Z,9.40
2022-09-21T05:54:30.850Z,9.40
2022-09-21T05:55:08.358Z,9.40
2022-09-21T05:55:51.668Z,9.40
2022-09-21T05:56:38.232Z,9.40
2022-09-21T05:57:19.696Z,9.40
2022-09-21T05:58:01.365Z,9.40
2022-09-21T05:58:40.807Z,9.40
2022-09-21T05:59:44.934Z,9.40
2022-09-21T06:00:19.421Z,9.40
2022-09-21T06:01:05.186Z,9.40
2022-09-21T06:01:47.136Z,9.40
2022-09-21T06:02:27.638Z,9.40
2022-09-21T06:03:25.808Z,9.40
2022-09-21T06:04:00.190Z,9.40
2022-09-21T06:04:32.488Z,9.40
2022-09-21T06:05:11.356Z,9.40
2022-09-21T06:05:43.908Z,9.40
2022-09-21T06:06:16.574Z,9.40
2022-09-21T06:06:49.609Z,9.40
2022-09-21T06:07:21.418Z,9.40
2022-09-21T06:07:53.211Z,9.40
2022-09-21T06:08:26.666Z,9.40
2022-09-21T06:08:58.456Z,9.40
2022-09-21T06:09:31.192Z,9.50
2022-09-21T06:10:03.144Z,9.50
2022-09-21T06:10:35.784Z,9.50
2022-09-21T06:11:08.541Z,9.60
2022-09-21T06:11:40.364Z,9.60
2022-09-21T06:12:12.200Z,9.60
2022-09-21T06:12:45.209Z,9.60
2022-09-21T06:13:17.520Z,9.60
2022-09-21T06:13:50.288Z,9.60
2022-09-21T06:14:25.467Z,9.60
2022-09-21T06:14:58.425Z,9.60
2022-09-21T06:15:30.257Z,9.60
2022-09-21T06:16:03.010Z,9.60
2022-09-21T06:16:39.414Z,9.60
2022-09-21T06:17:11.244Z,9.60
2022-09-21T06:17:43.389Z,9.60
2022-09-21T06:18:18.291Z,9.70
2022-09-21T06:18:50.249Z,9.70
2022-09-21T06:19:22.024Z,9.70
2022-09-21T06:19:55.046Z,9.70
2022-09-21T06:20:26.877Z,9.70
2022-09-21T06:20:58.649Z,9.70
2022-09-21T06:21:31.397Z,9.70
2022-09-21T06:22:03.200Z,9.70
2022-09-21T06:22:35.097Z,9.70
2022-09-21T06:23:09.665Z,9.70
2022-09-21T06:23:41.435Z,9.60
2022-09-21T06:24:13.257Z,9.70
2022-09-21T06:24:46.144Z,9.60
2022-09-21T06:25:20.133Z,9.70
2022-09-21T06:25:56.036Z,9.60
2022-09-21T06:26:30.925Z,9.60
2022-09-21T06:27:02.692Z,9.60
2022-09-21T06:27:34.543Z,9.60
2022-09-21T06:28:09.955Z,9.60
2022-09-21T06:28:41.736Z,9.70
2022-09-21T06:29:14.493Z,9.70
2022-09-21T06:29:46.259Z,9.70
2022-09-21T06:30:18.182Z,9.70
2022-09-21T06:30:53.092Z,9.70
2022-09-21T06:31:26.190Z,9.70
2022-09-21T06:31:59.789Z,9.70
2022-09-21T06:32:31.648Z,9.70
2022-09-21T06:33:04.678Z,9.70
2022-09-21T06:33:38.748Z,9.70
2022-09-21T06:34:10.501Z,9.80
2022-09-21T06:34:42.797Z,9.80
2022-09-21T06:35:15.593Z,9.80
2022-09-21T06:35:52.526Z,9.80
2022-09-21T06:36:25.377Z,9.80
2022-09-21T06:36:57.242Z,9.80
2022-09-21T06:37:28.985Z,9.80
2022-09-21T06:38:02.774Z,9.80
2022-09-21T06:38:35.241Z,9.80
2022-09-21T06:39:08.183Z,9.90
2022-09-21T06:39:40.006Z,9.90
2022-09-21T06:40:11.823Z,9.90
2022-09-21T06:40:44.633Z,9.90
2022-09-21T06:41:21.044Z,9.90
2022-09-21T06:41:54.231Z,9.90
2022-09-21T06:42:27.622Z,9.90
2022-09-21T06:43:01.291Z,9.90
2022-09-21T06:43:34.355Z,9.90
2022-09-21T06:44:06.614Z,10.00
2022-09-21T06:44:38.492Z,9.90
2022-09-21T06:45:10.731Z,10.00
2022-09-21T06:45:43.543Z,10.00
2022-09-21T06:46:15.513Z,10.00
2022-09-21T06:46:47.393Z,10.00
2022-09-21T06:47:20.162Z,10.10
2022-09-21T06:47:52.021Z,10.00
2022-09-21T06:48:24.211Z,10.00
2022-09-21T06:48:58.434Z,10.10
2022-09-21T06:49:30.217Z,10.10
2022-09-21T06:50:02.995Z,10.10
2022-09-21T06:50:35.837Z,10.10
2022-09-21T06:51:07.632Z,10.10
2022-09-21T06:51:40.394Z,10.00
2022-09-21T06:52:12.174Z,10.00
2022-09-21T06:52:43.941Z,10.10
2022-09-21T06:53:17.587Z,10.10
2022-09-21T06:53:49.415Z,10.10
2022-09-21T06:54:22.406Z,10.10
2022-09-21T06:54:54.193Z,10.10
2022-09-21T06:55:26.036Z,10.10
2022-09-21T06:56:02.730Z,10.10
2022-09-21T06:56:35.598Z,10.10
2022-09-21T06:57:08.340Z,10.10
2022-09-21T06:57:40.468Z,10.10
2022-09-21T06:58:13.245Z,10.10
2022-09-21T06:58:47.445Z,10.10
2022-09-21T06:59:20.281Z,10.10
2022-09-21T06:59:52.039Z,10.10
2022-09-21T07:00:23.783Z,10.10
2022-09-21T07:00:56.638Z,10.10
2022-09-21T07:01:28.585Z,10.20
2022-09-21T07:02:00.536Z,10.20
2022-09-21T07:02:33.373Z,10.20
2022-09-21T07:03:05.307Z,10.20
2022-09-21T07:03:38.703Z,10.20
2022-09-21T07:04:12.192Z,10.20
2022-09-21T07:04:44.921Z,10.20
2022-09-21T07:05:16.886Z,10.30
2022-09-21T07:05:49.518Z,10.30
2022-09-21T07:06:22.397Z,10.30
2022-09-21T07:06:54.170Z,10.30
2022-09-21T07:07:26.222Z,10.30
2022-09-21T07:07:59.563Z,10.30
2022-09-21T07:10:20.615Z,10.30
2022-09-21T07:10:53.860Z,10.40
2022-09-21T07:11:27.355Z,10.40
2022-09-21T07:12:00.098Z,10.40
2022-09-21T07:12:34.538Z,10.50
2022-09-21T07:13:09.397Z,10.50
2022-09-21T07:13:41.921Z,10.50
2022-09-21T07:14:14.779Z,10.60
2022-09-21T07:14:47.619Z,10.60
2022-09-21T07:15:19.535Z,10.60
2022-09-21T07:15:53.432Z,10.70
2022-09-21T07:16:25.418Z,10.70
2022-09-21T07:16:58.173Z,10.70
2022-09-21T07:17:32.173Z,10.80
2022-09-21T07:18:12.545Z,10.80
2022-09-21T07:18:44.526Z,10.80
2022-09-21T07:19:19.061Z,10.80
2022-09-21T07:19:50.822Z,10.80
2022-09-21T07:20:22.621Z,10.80
2022-09-21T07:20:55.356Z,10.80
2022-09-21T07:21:27.129Z,10.90
2022-09-21T07:21:59.901Z,10.90
2022-09-21T07:22:32.081Z,10.90
2022-09-21T07:23:11.931Z,10.90
2022-09-21T07:23:43.700Z,10.90
2022-09-21T07:24:16.623Z,11.00
2022-09-21T07:24:48.391Z,11.00
2022-09-21T07:25:20.189Z,11.00
2022-09-21T07:25:53.066Z,11.00
2022-09-21T07:26:24.884Z,11.10
2022-09-21T07:26:57.370Z,11.10
2022-09-21T07:27:31.572Z,11.10
2022-09-21T07:28:03.604Z,11.10
2022-09-21T07:28:36.898Z,11.20
2022-09-21T07:29:08.814Z,11.20
2022-09-21T07:29:40.623Z,11.20
2022-09-21T07:30:13.612Z,11.20
2022-09-21T07:30:45.416Z,11.20
2022-09-21T07:31:17.695Z,11.20
2022-09-21T07:31:50.569Z,11.20
2022-09-21T07:32:22.416Z,11.20
2022-09-21T07:32:54.187Z,11.20
2022-09-21T07:33:27.426Z,11.20
2022-09-21T07:33:59.249Z,11.20
2022-09-21T07:34:35.250Z,11.20
2022-09-21T07:35:08.671Z,11.20
2022-09-21T07:35:40.494Z,11.30
2022-09-21T07:36:13.174Z,11.30
2022-09-21T07:36:46.041Z,11.30
2022-09-21T07:37:17.918Z,11.30
2022-09-21T07:37:49.756Z,11.30